createdAt,value
2018-06-23T00:01:31.862Z,3.70
2018-06-23T00:04:01.849Z,3.90
2018-06-23T00:06:30.653Z,3.43
2018-06-23T00:08:59.681Z,3.60
2018-06-23T00:11:28.596Z,3.20
2018-06-23T00:14:02.975Z,3.83
2018-06-23T00:16:31.945Z,2.67
2018-06-23T00:19:00.941Z,3.40
2018-06-23T00:21:29.725Z,3.87
2018-06-23T00:23:59.621Z,4.07
2018-06-23T00:26:29.621Z,3.70
2018-06-23T00:28:59.104Z,4.20
2018-06-23T00:31:27.983Z,2.90
2018-06-23T00:33:57.808Z,2.87
2018-06-23T00:36:27.673Z,3.07
2018-06-23T00:38:58.625Z,3.33
2018-06-23T00:41:28.589Z,3.23
2018-06-23T00:43:58.575Z,4.77
2018-06-23T00:46:27.586Z,3.17
2018-06-23T00:48:57.573Z,3.63
2018-06-23T00:51:26.599Z,3.33
2018-06-23T00:53:56.398Z,3.63
2018-06-23T00:56:27.221Z,3.57
2018-06-23T00:59:07.169Z,3.20
2018-06-23T01:01:35.942Z,3.40
2018-06-23T01:04:04.882Z,3.03
2018-06-23T01:06:35.781Z,3.30
2018-06-23T01:09:07.459Z,2.87
2018-06-23T01:11:37.390Z,3.70
2018-06-23T01:14:06.381Z,3.57
2018-06-23T01:16:36.245Z,3.60
2018-06-23T01:19:04.993Z,3.07
2018-06-23T01:21:41.156Z,3.07
2018-06-23T01:24:11.996Z,2.60
2018-06-23T01:26:40.872Z,3.70
2018-06-23T01:29:09.638Z,3.90
2018-06-23T01:31:40.187Z,3.13
2018-06-23T01:34:08.957Z,4.17
2018-06-23T01:36:37.770Z,2.80
2018-06-23T01:39:08.473Z,3.73
2018-06-23T01:41:37.213Z,3.70
2018-06-23T01:44:06.912Z,3.37
2018-06-23T01:46:35.889Z,2.40
2018-06-23T01:49:05.084Z,2.60
2018-06-23T01:51:34.156Z,3.30
2018-06-23T01:54:04.042Z,2.13
2018-06-23T01:56:33.816Z,2.60
2018-06-23T01:59:02.562Z,1.80
2018-06-23T02:01:31.315Z,3.00
2018-06-23T02:04:00.103Z,2.60
2018-06-23T02:06:28.985Z,3.20
2018-06-23T02:08:59.113Z,3.70
2018-06-23T02:11:27.935Z,2.77
2018-06-23T02:14:08.984Z,3.87
2018-06-23T02:16:45.383Z,3.00
2018-06-23T02:19:19.600Z,2.70
2018-06-23T02:21:53.902Z,2.53
2018-06-23T02:24:29.090Z,2.50
2018-06-23T02:27:03.406Z,2.53
2018-06-23T02:29:43.947Z,2.40
2018-06-23T02:34:26.112Z,2.40
2018-06-23T02:36:54.941Z,2.40
2018-06-23T02:39:24.849Z,2.77
2018-06-23T02:41:53.621Z,2.90
2018-06-23T02:44:27.406Z,3.17
2018-06-23T02:46:58.217Z,2.80
2018-06-23T02:49:29.144Z,2.87
2018-06-23T02:52:01.612Z,2.50
2018-06-23T02:54:30.395Z,2.73
2018-06-23T02:56:59.185Z,2.73
2018-06-23T02:59:28.048Z,2.13
2018-06-23T03:02:01.341Z,2.30
2018-06-23T03:04:32.156Z,2.90
2018-06-23T03:07:00.956Z,2.40
2018-06-23T03:09:35.886Z,2.30
2018-06-23T03:12:04.714Z,2.50
2018-06-23T03:14:33.553Z,2.53
2018-06-23T03:17:02.341Z,2.33
2018-06-23T03:19:35.552Z,2.70
2018-06-23T03:22:10.954Z,2.60
2018-06-23T03:24:40.712Z,2.43
2018-06-23T03:27:13.077Z,3.10
2018-06-23T03:29:41.859Z,2.77
2018-06-23T03:32:11.245Z,2.60
2018-06-23T03:34:42.070Z,2.60
2018-06-23T03:37:11.870Z,2.23
2018-06-23T03:39:45.408Z,2.30
2018-06-23T03:42:14.568Z,2.70
2018-06-23T03:44:43.353Z,2.30
2018-06-23T03:47:23.596Z,1.93
2018-06-23T03:49:52.439Z,2.50
2018-06-23T03:52:23.262Z,2.80
2018-06-23T03:54:52.068Z,1.70
2018-06-23T03:57:21.834Z,2.60
2018-06-23T03:59:51.491Z,2.50
2018-06-23T04:02:20.402Z,2.67
2018-06-23T04:04:49.141Z,2.50
2018-06-23T04:07:20.009Z,1.90
2018-06-23T04:09:48.816Z,2.50
2018-06-23T04:12:17.544Z,2.40
2018-06-23T04:14:46.439Z,1.73
2018-06-23T04:17:16.217Z,1.80
2018-06-23T04:19:46.975Z,4.40
2018-06-23T04:22:16.274Z,2.23
2018-06-23T04:24:46.125Z,2.00
2018-06-23T04:27:16.962Z,2.40
2018-06-23T04:29:55.625Z,1.90
2018-06-23T04:32:24.473Z,2.63
2018-06-23T04:34:53.310Z,2.13
2018-06-23T04:37:22.111Z,2.60
2018-06-23T04:39:50.894Z,2.43
2018-06-23T04:42:19.824Z,1.80
2018-06-23T04:44:49.016Z,2.60
2018-06-23T04:47:17.828Z,2.70
2018-06-23T04:49:48.936Z,5.20
2018-06-23T04:52:17.755Z,6.40
2018-06-23T04:54:47.620Z,2.00
2018-06-23T04:57:19.960Z,2.20
2018-06-23T04:59:49.736Z,1.90
2018-06-23T05:02:18.768Z,1.93
2018-06-23T05:04:51.023Z,1.70
2018-06-23T05:07:19.791Z,1.87
2018-06-23T05:10:01.185Z,1.97
2018-06-23T05:12:29.893Z,2.50
2018-06-23T05:15:02.858Z,2.40
2018-06-23T05:17:33.315Z,1.60
2018-06-23T05:20:02.174Z,2.17
2018-06-23T05:22:31.029Z,2.17
2018-06-23T05:25:00.825Z,1.90
2018-06-23T05:27:29.825Z,1.90
2018-06-23T05:30:03.522Z,2.20
2018-06-23T05:32:33.335Z,2.50
2018-06-23T05:35:03.115Z,1.70
2018-06-23T05:37:32.124Z,2.50
2018-06-23T05:40:01.360Z,2.10
2018-06-23T05:42:30.125Z,4.67
2018-06-23T05:45:04.149Z,2.60
2018-06-23T05:47:33.229Z,2.90
2018-06-23T05:50:03.317Z,2.27
2018-06-23T05:52:32.335Z,1.80
2018-06-23T05:55:02.183Z,2.30
2018-06-23T05:57:31.885Z,2.10
2018-06-23T06:00:03.009Z,2.13
2018-06-23T06:02:45.459Z,1.57
2018-06-23T06:05:15.350Z,1.43
2018-06-23T06:07:54.724Z,1.93
2018-06-23T06:10:24.578Z,1.93
2018-06-23T06:12:53.416Z,2.13
2018-06-23T06:15:22.210Z,1.80
2018-06-23T06:17:54.288Z,2.40
2018-06-23T06:20:23.138Z,2.03
2018-06-23T06:22:52.232Z,2.20
2018-06-23T06:25:26.563Z,2.23
2018-06-23T06:28:01.501Z,2.00
2018-06-23T06:30:30.464Z,2.20
2018-06-23T06:32:59.469Z,1.87
2018-06-23T06:35:30.877Z,1.80
2018-06-23T06:38:28.920Z,1.80
2018-06-23T06:41:00.949Z,1.97
2018-06-23T06:43:33.379Z,2.03
2018-06-23T06:46:03.921Z,2.53
2018-06-23T06:48:34.286Z,2.10
2018-06-23T06:51:15.481Z,1.87
2018-06-23T06:53:45.401Z,1.60
2018-06-23T06:56:14.229Z,1.23
2018-06-23T06:58:44.142Z,2.13
2018-06-23T07:01:15.089Z,1.53
2018-06-23T07:03:43.911Z,1.73
2018-06-23T07:06:14.066Z,1.80
2018-06-23T07:08:44.105Z,1.73
2018-06-23T07:11:14.094Z,2.00
2018-06-23T07:13:45.043Z,1.57
2018-06-23T07:16:13.849Z,1.60
2018-06-23T07:18:42.650Z,2.87
2018-06-23T07:21:12.509Z,2.13
2018-06-23T07:23:41.629Z,2.03
2018-06-23T07:26:10.430Z,1.73
2018-06-23T07:28:42.821Z,1.57
2018-06-23T07:31:11.707Z,2.53
2018-06-23T07:33:44.919Z,2.47
2018-06-23T07:36:14.032Z,1.80
2018-06-23T07:38:47.296Z,2.37
2018-06-23T07:41:16.880Z,1.63
2018-06-23T07:43:47.054Z,1.80
2018-06-23T07:46:16.310Z,3.20
2018-06-23T07:48:45.332Z,2.50
2018-06-23T07:51:14.317Z,3.00
2018-06-23T07:53:43.487Z,2.20
2018-06-23T07:56:12.604Z,2.60
2018-06-23T07:58:41.594Z,2.47
2018-06-23T08:01:11.333Z,2.40
2018-06-23T08:03:46.030Z,3.00
2018-06-23T08:06:15.966Z,2.30
2018-06-23T08:08:45.207Z,3.13
2018-06-23T08:11:17.374Z,2.10
2018-06-23T08:13:47.888Z,3.03
2018-06-23T08:16:31.158Z,2.23
2018-06-23T08:19:01.591Z,2.70
2018-06-23T08:21:33.975Z,2.53
2018-06-23T08:24:02.799Z,2.60
2018-06-23T08:26:31.972Z,2.90
2018-06-23T08:29:02.806Z,3.67
2018-06-23T08:31:31.686Z,3.23
2018-06-23T08:34:01.568Z,3.53
2018-06-23T08:36:31.374Z,3.30
2018-06-23T08:39:00.225Z,3.47
2018-06-23T08:41:30.601Z,2.87
2018-06-23T08:43:59.912Z,3.27
2018-06-23T08:46:29.529Z,2.43
2018-06-23T08:48:59.327Z,2.40
2018-06-23T08:51:32.271Z,3.47
2018-06-23T08:54:01.128Z,2.73
2018-06-23T08:56:30.905Z,3.00
2018-06-23T08:58:59.742Z,2.77
2018-06-23T09:01:31.859Z,2.73
2018-06-23T09:04:06.458Z,3.60
2018-06-23T09:06:37.528Z,2.57
2018-06-23T09:09:10.401Z,3.50
2018-06-23T09:11:41.403Z,2.23
2018-06-23T09:14:18.139Z,2.50
2018-06-23T09:16:50.146Z,2.50
2018-06-23T09:19:19.800Z,2.87
2018-06-23T09:21:49.362Z,3.10
2018-06-23T09:24:20.853Z,2.63
2018-06-23T09:26:50.538Z,2.50
2018-06-23T09:29:23.061Z,2.70
2018-06-23T09:32:06.299Z,2.50
2018-06-23T09:37:34.955Z,2.33
2018-06-23T09:40:04.225Z,2.20
2018-06-23T09:42:33.143Z,2.40
2018-06-23T09:45:03.214Z,2.00
2018-06-23T09:47:34.208Z,1.60
2018-06-23T09:50:03.263Z,2.40
2018-06-23T09:52:32.189Z,2.43
2018-06-23T09:55:05.947Z,2.23
2018-06-23T09:57:35.452Z,2.40
2018-06-23T10:00:04.789Z,2.50
2018-06-23T10:02:33.715Z,2.30
2018-06-23T10:05:03.331Z,2.90
2018-06-23T10:11:11.992Z,2.97
2018-06-23T10:31:32.564Z,3.83
2018-06-23T10:34:42.416Z,2.97
2018-06-23T10:43:03.876Z,2.60
2018-06-23T11:36:49.239Z,2.60
2018-06-23T12:03:54.761Z,2.80
2018-06-23T12:06:46.319Z,3.80
2018-06-23T12:09:42.222Z,2.87
2018-06-23T12:35:07.036Z,1.93
2018-06-23T12:57:40.729Z,3.20
2018-06-23T13:00:52.523Z,3.77
2018-06-23T19:56:30.098Z,8.10
2018-06-23T19:59:00.044Z,7.73
2018-06-23T20:01:29.036Z,8.03
2018-06-23T20:04:01.932Z,8.00
2018-06-23T20:06:30.679Z,8.23
2018-06-23T20:08:59.473Z,7.37
2018-06-23T20:11:33.197Z,6.83
2018-06-23T20:14:02.059Z,7.80
2018-06-23T20:16:30.848Z,8.27
2018-06-23T20:19:01.721Z,7.67
2018-06-23T20:21:32.706Z,8.70
2018-06-23T20:24:05.218Z,8.70
2018-06-23T20:26:34.069Z,9.50
2018-06-23T20:29:14.987Z,9.10
2018-06-23T20:31:44.132Z,8.90
2018-06-23T20:34:13.037Z,8.47
2018-06-23T20:36:42.022Z,8.97
2018-06-23T20:39:12.683Z,7.50
2018-06-23T20:41:43.673Z,7.60
2018-06-23T20:44:12.548Z,8.07
2018-06-23T20:46:41.405Z,7.03
2018-06-23T20:49:12.332Z,8.63
2018-06-23T20:51:41.188Z,8.20
2018-06-23T20:54:11.670Z,8.80
2018-06-23T20:56:46.514Z,7.20
2018-06-23T20:59:19.422Z,10.00
2018-06-23T21:01:51.889Z,7.33
2018-06-23T21:04:20.734Z,7.70
2018-06-23T21:06:49.485Z,7.57
2018-06-23T21:09:18.293Z,7.33
2018-06-23T21:11:47.094Z,7.93
2018-06-23T21:14:15.923Z,8.20
2018-06-23T21:16:44.918Z,8.10
2018-06-23T21:19:13.744Z,7.13
2018-06-23T21:21:43.501Z,7.80
2018-06-23T21:24:12.325Z,6.90
2018-06-23T21:26:42.180Z,6.10
2018-06-23T21:29:12.058Z,7.27
2018-06-23T21:31:40.880Z,6.30
2018-06-23T21:34:09.640Z,7.03
2018-06-23T21:36:40.470Z,7.93
2018-06-23T21:39:10.804Z,8.03
2018-06-23T21:41:42.169Z,6.67
2018-06-23T21:44:12.708Z,6.90
2018-06-23T21:46:41.564Z,7.27
2018-06-23T21:49:10.319Z,7.20
2018-06-23T21:51:39.133Z,7.53
2018-06-23T21:54:07.975Z,6.83
2018-06-23T21:56:36.776Z,8.00
2018-06-23T21:59:05.455Z,7.00
2018-06-23T22:01:34.264Z,6.30
2018-06-23T22:04:03.049Z,7.10
2018-06-23T22:06:32.891Z,7.40
2018-06-23T22:09:09.809Z,6.60
2018-06-23T22:11:38.420Z,7.17
2018-06-23T22:14:08.177Z,6.47
2018-06-23T22:16:36.962Z,7.50
2018-06-23T22:19:06.089Z,6.67
2018-06-23T22:21:40.430Z,6.97
2018-06-23T22:24:16.744Z,6.20
2018-06-23T22:26:45.530Z,5.77
2018-06-23T22:29:14.305Z,5.20
2018-06-23T22:31:43.106Z,5.90
2018-06-23T22:34:11.886Z,4.97
2018-06-23T22:36:57.007Z,5.60
2018-06-23T22:39:29.344Z,5.40
2018-06-23T22:42:00.256Z,5.70
2018-06-23T22:44:30.905Z,5.30
2018-06-23T22:46:59.662Z,5.60
2018-06-23T22:49:28.364Z,5.60
2018-06-23T22:51:57.329Z,4.70
2018-06-23T22:54:27.064Z,4.53
2018-06-23T22:56:55.878Z,5.27
2018-06-23T22:59:30.738Z,5.27
2018-06-23T23:02:03.665Z,4.30
2018-06-23T23:04:38.031Z,4.80
2018-06-23T23:07:06.760Z,4.53
2018-06-23T23:09:35.917Z,5.20
2018-06-23T23:12:05.903Z,5.17
2018-06-23T23:14:38.360Z,5.07
2018-06-23T23:17:07.198Z,5.77
2018-06-23T23:19:36.007Z,5.17
2018-06-23T23:22:04.828Z,5.27
2018-06-23T23:24:34.409Z,5.47
2018-06-23T23:27:04.321Z,5.10
2018-06-23T23:29:33.104Z,5.83
2018-06-23T23:32:01.916Z,5.57
2018-06-23T23:34:30.727Z,5.63
2018-06-23T23:37:00.637Z,5.67
2018-06-23T23:39:29.448Z,6.43
2018-06-23T23:42:09.787Z,5.27
2018-06-23T23:44:38.514Z,5.27
2018-06-23T23:47:09.329Z,5.50
2018-06-23T23:49:38.041Z,5.17
2018-06-23T23:52:07.160Z,5.50
2018-06-23T23:54:36.003Z,5.10
2018-06-23T23:57:04.826Z,6.00
2018-06-23T23:59:33.646Z,5.20
